»·PEaware :: N8748 KOXR-L00

N8748 :: KOXR-L00

FLIGHT INFORMATION

Flight Status: Arrived
Operator: Privately registered:
United States
More flights under this callsign
Pilot: Ben H. (9170)
Aircraft: CESSNA 207 TURBO STATIONAIR
(C207)
More flights by this aircraft type
Origin: KOXR Oxnard
United States
Destination: L00 Rosamond
United States
More flights between these airports :: More routes between these airports
Route: CMA6 FIM V386 PMD
File this flight plan on PilotEdge
Remarks:
Altitude:
(Current/Filed)
11,000ft
Speed:
(Current/Filed)
140kts
Departed: 20-Jul-19 08:18 AM
Arrived: 20-Jul-19 09:05 AM
Distance/Time
Traveled:
62nm/0:47
Distance/Time
To Go:
Arrived

Flight Plot

Page will automatically refresh every two minutes.

Flight plan parsing failed; only flown route is shown


Map Options




Map Legend


Flown Route
Filed Route
Departure Airport
Arrival Airport
Navaid (VOR, NDB)
Fix

Horizontal Profiles

Position Reports

Time Latitude Longitude Heading Altitude Ground
Speed
20-Jul-19 07:47 34.198726 -119.202074 359 44ft 0kts
20-Jul-19 07:48 34.198726 -119.202074 359 44ft 0kts
20-Jul-19 07:49 34.198726 -119.202074 359 44ft 0kts
20-Jul-19 07:49 34.198726 -119.202074 359 44ft 0kts
20-Jul-19 07:50 34.198726 -119.202074 359 44ft 0kts
20-Jul-19 07:52 34.198726 -119.202074 359 44ft 0kts
20-Jul-19 07:52 34.198726 -119.202074 359 44ft 0kts
20-Jul-19 07:53 34.198726 -119.202074 359 44ft 0kts
20-Jul-19 07:54 34.198726 -119.202074 359 44ft 0kts
20-Jul-19 07:55 34.198726 -119.202074 359 44ft 0kts
20-Jul-19 07:56 34.198726 -119.202074 359 44ft 0kts
20-Jul-19 07:57 34.198726 -119.202074 359 44ft 0kts
20-Jul-19 07:58 34.198726 -119.202074 359 44ft 0kts
20-Jul-19 07:59 34.198726 -119.202074 359 44ft 0kts
20-Jul-19 08:00 34.198726 -119.202074 359 44ft 0kts
20-Jul-19 08:01 34.198726 -119.202074 359 44ft 0kts
20-Jul-19 08:02 34.198726 -119.202074 359 44ft 0kts
20-Jul-19 08:03 34.198726 -119.202074 359 44ft 0kts
20-Jul-19 08:04 34.198726 -119.202074 359 44ft 0kts
20-Jul-19 08:05 34.198726 -119.202074 359 44ft 0kts
20-Jul-19 08:06 34.198726 -119.202074 359 44ft 0kts
20-Jul-19 08:07 34.198726 -119.202074 359 44ft 0kts
20-Jul-19 08:08 34.198726 -119.202074 359 44ft 0kts
20-Jul-19 08:09 34.198726 -119.202074 359 44ft 0kts
20-Jul-19 08:10 34.198726 -119.202074 359 44ft 0kts
20-Jul-19 08:11 34.198726 -119.202074 359 44ft 0kts
20-Jul-19 08:12 34.199406 -119.202061 2 44ft 6kts
20-Jul-19 08:13 34.199730 -119.199151 90 45ft 12kts
20-Jul-19 08:14 34.199782 -119.197575 348 44ft 0kts
20-Jul-19 08:15 34.199904 -119.197556 6 44ft 0kts
20-Jul-19 08:16 34.200738 -119.198529 271 44ft 32kts
20-Jul-19 08:17 34.199385 -119.230017 266 796ft 100kts
20-Jul-19 08:18 34.196712 -119.263559 270 1763ft 101kts
20-Jul-19 08:19 34.195866 -119.297607 277 2719ft 104kts
20-Jul-19 08:20 34.193500 -119.332072 267 3736ft 105kts
20-Jul-19 08:21 34.193067 -119.366859 269 4775ft 104kts
20-Jul-19 08:22 34.192753 -119.401639 269 5801ft 104kts
20-Jul-19 08:23 34.208389 -119.421558 30 6778ft 113kts
20-Jul-19 08:24 34.220075 -119.386421 74 7733ft 113kts
20-Jul-19 08:25 34.229609 -119.349800 71 8643ft 113kts
20-Jul-19 08:26 34.239644 -119.313172 71 9511ft 114kts
20-Jul-19 08:27 34.251553 -119.269820 75 8526ft 177kts
20-Jul-19 08:28 34.264455 -119.219903 71 8004ft 141kts
20-Jul-19 08:29 34.277448 -119.174103 71 8005ft 141kts
20-Jul-19 08:30 34.289806 -119.128818 71 8005ft 140kts
20-Jul-19 08:31 34.302064 -119.083658 71 8005ft 140kts
20-Jul-19 08:32 34.314330 -119.038312 71 8005ft 140kts
20-Jul-19 08:33 34.326610 -118.992956 71 8005ft 140kts
20-Jul-19 08:34 34.338998 -118.947195 71 8005ft 141kts
20-Jul-19 08:35 34.350799 -118.903365 71 8522ft 131kts
20-Jul-19 08:36 34.363093 -118.861687 65 9127ft 130kts
20-Jul-19 08:37 34.377230 -118.821060 66 9732ft 130kts
20-Jul-19 08:38 34.391049 -118.780503 66 10336ft 130kts
20-Jul-19 08:39 34.404932 -118.739546 66 10945ft 129kts
20-Jul-19 08:40 34.419717 -118.695612 67 11006ft 144kts
20-Jul-19 08:41 34.435104 -118.649911 66 11006ft 145kts
20-Jul-19 08:42 34.450601 -118.604008 66 11006ft 145kts
20-Jul-19 08:43 34.466193 -118.557781 66 11006ft 146kts
20-Jul-19 08:44 34.481684 -118.511831 66 11006ft 146kts
20-Jul-19 08:45 34.497186 -118.465739 66 11006ft 146kts
20-Jul-19 08:46 34.512776 -118.419341 66 11007ft 146kts
20-Jul-19 08:47 34.528218 -118.373157 66 11007ft 146kts
20-Jul-19 08:48 34.543755 -118.326701 67 11004ft 146kts
20-Jul-19 08:49 34.559267 -118.280494 67 11006ft 145kts
20-Jul-19 08:50 34.574673 -118.234312 67 11004ft 146kts
20-Jul-19 08:51 34.590071 -118.188012 67 10838ft 148kts
20-Jul-19 08:52 34.605560 -118.141136 66 10167ft 148kts
20-Jul-19 08:53 34.620795 -118.094630 66 9474ft 147kts
20-Jul-19 08:54 34.650485 -118.075257 331 8756ft 133kts
20-Jul-19 08:55 34.683729 -118.095462 330 8049ft 130kts
20-Jul-19 08:56 34.716048 -118.115146 331 7344ft 129kts
20-Jul-19 08:57 34.748383 -118.134789 330 6606ft 129kts
20-Jul-19 08:58 34.773639 -118.157656 235 5760ft 141kts
20-Jul-19 08:59 34.777545 -118.149284 313 3286ft 138kts
20-Jul-19 09:00 34.802892 -118.167587 337 2804ft 82kts
20-Jul-19 09:01 34.827413 -118.175028 334 3075ft 106kts
20-Jul-19 09:02 34.856006 -118.184596 353 3204ft 105kts
20-Jul-19 09:03 34.870444 -118.192148 266 2555ft 50kts
20-Jul-19 09:04 34.870444 -118.204864 271 2419ft 12kts
20-Jul-19 09:05 34.870174 -118.205963 96 2419ft 0kts
20-Jul-19 09:06 34.870148 -118.203685 90 2419ft 20kts
20-Jul-19 09:07 34.870199 -118.199866 21 2418ft 0kts
20-Jul-19 09:08 34.870199 -118.199866 21 2418ft 0kts
20-Jul-19 09:09 34.870199 -118.199866 21 2418ft 0kts
20-Jul-19 09:10 34.870199 -118.199866 21 2418ft 0kts
20-Jul-19 09:11 34.870199 -118.199866 21 2418ft 0kts
20-Jul-19 09:12 34.870199 -118.199866 21 2418ft 0kts
20-Jul-19 09:13 34.870199 -118.199866 21 2418ft 0kts
20-Jul-19 09:14 34.870254 -118.209511 264 2660ft 86kts
20-Jul-19 09:15 34.888099 -118.227320 326 3989ft 97kts
20-Jul-19 09:16 34.896774 -118.257114 282 5128ft 98kts
20-Jul-19 09:17 34.899984 -118.293068 271 5952ft 116kts

Navigation Log

Ident Type
Flight plan parsing failed, navigation log unavailable